createdAt,value
2022-10-17T00:00:44.166Z,51.21
2022-10-17T00:05:51.377Z,51.31
2022-10-17T00:10:58.633Z,51.35
2022-10-17T00:16:05.870Z,51.42
2022-10-17T00:21:13.047Z,51.45
2022-10-17T00:26:20.286Z,51.51
2022-10-17T00:31:27.449Z,51.38
2022-10-17T00:36:34.674Z,51.50
2022-10-17T00:41:41.923Z,51.29
2022-10-17T00:46:49.209Z,51.47
2022-10-17T00:51:56.388Z,51.39
2022-10-17T00:57:03.628Z,51.09
2022-10-17T01:02:10.810Z,51.42
2022-10-17T01:07:18.017Z,51.54
2022-10-17T01:12:25.570Z,51.54
2022-10-17T01:17:32.418Z,51.37
2022-10-17T01:22:39.617Z,51.53
2022-10-17T01:27:49.523Z,51.53
2022-10-17T01:32:56.788Z,51.67
2022-10-17T01:38:04.005Z,51.71
2022-10-17T01:43:11.243Z,51.60
2022-10-17T01:48:18.463Z,51.45
2022-10-17T01:53:25.777Z,51.51
2022-10-17T01:58:33.011Z,51.57
2022-10-17T02:03:40.181Z,51.62
2022-10-17T02:08:47.392Z,51.55
2022-10-17T02:13:54.657Z,51.66
2022-10-17T02:19:02.261Z,51.67
2022-10-17T02:24:09.465Z,51.77
2022-10-17T02:29:16.707Z,51.73
2022-10-17T02:34:23.862Z,51.78
2022-10-17T02:39:31.092Z,51.73
2022-10-17T02:44:38.411Z,51.73
2022-10-17T02:49:45.584Z,51.74
2022-10-17T02:54:52.874Z,51.74
2022-10-17T03:00:00.198Z,51.75
2022-10-17T03:05:07.379Z,51.73
2022-10-17T03:10:14.621Z,51.70
2022-10-17T03:15:21.844Z,51.70
2022-10-17T03:20:29.061Z,51.59
2022-10-17T03:25:36.281Z,51.56
2022-10-17T03:30:43.490Z,51.50
2022-10-17T03:40:57.797Z,51.33
2022-10-17T03:46:05.290Z,51.32
2022-10-17T03:51:12.244Z,51.29
2022-10-17T03:56:19.463Z,51.13
2022-10-17T04:01:26.767Z,51.08
2022-10-17T04:06:33.869Z,51.10
2022-10-17T04:11:41.083Z,50.87
2022-10-17T04:16:48.345Z,50.78
2022-10-17T04:21:55.592Z,50.39
2022-10-17T04:27:02.836Z,50.30
2022-10-17T04:32:10.120Z,50.33
2022-10-17T04:37:17.358Z,50.42
2022-10-17T04:42:24.606Z,50.19
2022-10-17T04:47:31.848Z,50.29
2022-10-17T04:52:39.025Z,50.21
2022-10-17T04:57:46.208Z,50.14
2022-10-17T05:02:53.471Z,50.50
2022-10-17T05:08:00.658Z,50.38
2022-10-17T05:13:07.843Z,50.26
2022-10-17T05:18:15.062Z,50.30
2022-10-17T05:23:22.232Z,50.13
2022-10-17T05:28:29.627Z,49.91
2022-10-17T05:33:36.813Z,50.03
2022-10-17T05:38:43.960Z,49.93
2022-10-17T05:43:51.143Z,49.97
2022-10-17T05:48:58.427Z,49.84
2022-10-17T05:54:05.564Z,49.82
2022-10-17T05:59:12.795Z,49.90
2022-10-17T06:04:20.135Z,50.03
2022-10-17T06:09:27.136Z,50.01
2022-10-17T06:14:34.382Z,49.95
2022-10-17T06:19:41.594Z,49.83
2022-10-17T06:24:48.726Z,49.89
2022-10-17T06:29:55.993Z,49.84
2022-10-17T06:35:03.267Z,49.84
2022-10-17T06:40:10.401Z,49.77
2022-10-17T06:45:17.636Z,49.58
2022-10-17T06:50:25.056Z,49.81
2022-10-17T06:55:32.326Z,49.82
2022-10-17T07:00:39.717Z,49.97
2022-10-17T07:05:46.859Z,50.06
2022-10-17T07:10:54.035Z,50.22
2022-10-17T07:16:01.281Z,50.43
2022-10-17T07:21:08.556Z,50.45
2022-10-17T07:26:15.755Z,50.42
2022-10-17T07:31:23.174Z,50.56
2022-10-17T07:36:30.609Z,50.64
2022-10-17T07:41:37.820Z,50.61
2022-10-17T07:46:45.004Z,50.56
2022-10-17T07:51:52.254Z,50.49
2022-10-17T07:56:59.469Z,50.87
2022-10-17T08:02:06.696Z,51.09
2022-10-17T08:07:20.958Z,51.10
2022-10-17T08:12:21.261Z,50.90
2022-10-17T08:17:28.438Z,50.88
2022-10-17T08:22:37.697Z,50.82
2022-10-17T08:27:44.893Z,50.75
2022-10-17T08:32:52.188Z,50.59
2022-10-17T08:37:59.429Z,50.45
2022-10-17T08:43:06.599Z,50.58
2022-10-17T08:48:13.754Z,50.79
2022-10-17T08:53:20.971Z,50.97
2022-10-17T08:58:28.137Z,51.05
2022-10-17T09:03:35.417Z,50.61
2022-10-17T09:08:42.736Z,50.67
2022-10-17T09:13:49.896Z,50.55
2022-10-17T09:18:57.097Z,50.87
2022-10-17T09:24:09.710Z,50.99
2022-10-17T09:29:11.547Z,51.07
2022-10-17T09:34:18.777Z,51.32
2022-10-17T09:39:26.073Z,51.28
2022-10-17T09:44:33.274Z,51.06
2022-10-17T09:49:40.511Z,51.27
2022-10-17T09:54:47.749Z,51.02
2022-10-17T09:59:55.179Z,51.22
2022-10-17T10:05:05.600Z,51.52
2022-10-17T10:10:09.943Z,51.01
2022-10-17T10:15:17.179Z,51.16
2022-10-17T10:20:24.391Z,51.24
2022-10-17T10:25:31.631Z,51.40
2022-10-17T10:30:41.783Z,51.80
2022-10-17T10:35:49.025Z,51.57
2022-10-17T10:40:56.209Z,51.51
2022-10-17T10:46:03.389Z,51.63
2022-10-17T10:51:10.589Z,51.74
2022-10-17T10:56:17.879Z,51.67
2022-10-17T11:01:25.014Z,51.71
2022-10-17T11:06:32.220Z,51.83
2022-10-17T11:11:39.441Z,51.99
2022-10-17T11:16:46.805Z,52.03
2022-10-17T11:21:54.031Z,52.51
2022-10-17T11:27:01.269Z,52.23
2022-10-17T11:32:08.437Z,52.51
2022-10-17T11:37:15.858Z,52.42
2022-10-17T11:42:23.092Z,52.33
2022-10-17T11:47:30.263Z,52.32
2022-10-17T11:52:55.515Z,52.32
2022-10-17T11:57:44.717Z,52.18
2022-10-17T12:02:51.875Z,52.07
2022-10-17T12:07:59.122Z,52.05
2022-10-17T12:13:06.399Z,52.10
2022-10-17T12:18:13.619Z,52.14
2022-10-17T12:23:20.791Z,51.93
2022-10-17T12:28:28.112Z,51.97
2022-10-17T12:33:35.199Z,51.90
2022-10-17T12:38:43.094Z,51.96
2022-10-17T12:48:57.590Z,52.09
2022-10-17T12:54:04.869Z,52.05
2022-10-17T12:59:12.066Z,51.93
2022-10-17T13:04:19.239Z,51.97
2022-10-17T13:09:26.459Z,51.84
2022-10-17T13:14:34.536Z,51.93
2022-10-17T13:19:41.807Z,51.99
2022-10-17T13:24:49.030Z,52.01
2022-10-17T13:29:56.274Z,51.98
2022-10-17T13:35:03.601Z,52.07
2022-10-17T13:40:30.895Z,52.08
2022-10-17T13:45:18.092Z,52.18
2022-10-17T13:50:42.997Z,52.22
2022-10-17T13:55:32.532Z,52.47
2022-10-17T14:00:39.781Z,52.73
2022-10-17T14:05:46.900Z,52.58
2022-10-17T14:10:54.144Z,52.73
2022-10-17T14:16:01.405Z,52.68
2022-10-17T14:21:36.885Z,52.75
2022-10-17T14:26:15.763Z,52.80
2022-10-17T14:31:27.454Z,52.72
2022-10-17T14:36:34.666Z,52.69
2022-10-17T14:41:43.517Z,52.71
2022-10-17T14:46:51.013Z,52.67
2022-10-17T14:52:03.903Z,52.64
2022-10-17T14:57:03.580Z,52.75
2022-10-17T15:02:10.833Z,52.61
2022-10-17T15:07:18.070Z,52.62
2022-10-17T15:12:25.561Z,52.56
2022-10-17T15:17:32.571Z,52.53
2022-10-17T15:22:39.767Z,52.46
2022-10-17T15:27:46.948Z,52.45
2022-10-17T15:32:54.162Z,52.40
2022-10-17T15:38:01.305Z,52.45
2022-10-17T15:43:08.471Z,52.44
2022-10-17T15:48:15.816Z,52.43
2022-10-17T15:53:23.040Z,52.84
2022-10-17T15:58:30.278Z,52.78
2022-10-17T16:03:37.492Z,52.86
2022-10-17T16:08:44.662Z,52.83
2022-10-17T16:13:51.863Z,52.83
2022-10-17T16:18:59.093Z,52.86
2022-10-17T16:24:06.269Z,52.96
2022-10-17T16:29:13.500Z,52.97
2022-10-17T16:34:20.695Z,52.94
2022-10-17T16:44:35.103Z,52.88
2022-10-17T16:49:45.196Z,52.90
2022-10-17T16:54:49.544Z,52.89
2022-10-17T16:59:56.837Z,52.93
2022-10-17T17:05:04.353Z,52.88
2022-10-17T17:10:11.645Z,53.00
2022-10-17T17:15:18.889Z,52.88
2022-10-17T17:20:26.234Z,52.98
2022-10-17T17:25:33.462Z,52.93
2022-10-17T17:30:40.706Z,52.95
2022-10-17T17:35:48.632Z,52.96
2022-10-17T17:40:55.752Z,52.99
2022-10-17T17:46:02.990Z,52.98
2022-10-17T17:51:10.410Z,52.97
2022-10-17T17:56:18.011Z,53.06
2022-10-17T18:01:25.374Z,53.15
2022-10-17T18:06:32.855Z,53.22
2022-10-17T18:11:40.165Z,53.12
2022-10-17T18:16:47.750Z,53.16
2022-10-17T18:21:55.386Z,53.22
2022-10-17T18:27:02.976Z,53.17
2022-10-17T18:32:10.585Z,53.19
2022-10-17T18:37:17.954Z,53.30
2022-10-17T18:42:25.309Z,53.32
2022-10-17T18:47:33.334Z,53.28
2022-10-17T18:52:41.071Z,53.29
2022-10-17T18:57:48.661Z,53.32
2022-10-17T19:02:56.271Z,53.35
2022-10-17T19:08:03.661Z,53.15
2022-10-17T19:13:11.203Z,53.18
2022-10-17T19:18:18.559Z,53.25
2022-10-17T19:23:25.851Z,53.13
2022-10-17T19:28:33.289Z,53.10
2022-10-17T19:33:40.666Z,53.13
2022-10-17T19:38:47.923Z,53.06
2022-10-17T19:43:55.147Z,53.06
2022-10-17T19:49:02.661Z,52.98
2022-10-17T19:54:10.101Z,52.98
2022-10-17T19:59:17.421Z,53.08
2022-10-17T20:04:24.608Z,53.03
2022-10-17T20:09:32.532Z,52.97
2022-10-17T20:14:41.168Z,52.93
2022-10-17T20:19:47.018Z,52.89
2022-10-17T20:24:54.268Z,52.93
2022-10-17T20:30:01.428Z,52.87
2022-10-17T20:35:08.617Z,52.88
2022-10-17T20:40:34.141Z,52.68
2022-10-17T20:45:37.383Z,52.78
2022-10-17T20:50:30.259Z,52.67
2022-10-17T20:55:37.513Z,52.76
2022-10-17T21:00:44.716Z,52.90
2022-10-17T21:05:51.965Z,53.17
2022-10-17T21:10:59.188Z,53.60
2022-10-17T21:16:06.454Z,53.73
2022-10-17T21:21:13.706Z,53.46
2022-10-17T21:26:20.904Z,53.10
2022-10-17T21:31:28.033Z,52.77
2022-10-17T21:36:35.251Z,52.62
2022-10-17T21:41:42.437Z,52.47
2022-10-17T21:46:49.803Z,52.18
2022-10-17T21:51:56.974Z,52.09
2022-10-17T21:57:04.346Z,52.04
2022-10-17T22:02:11.415Z,51.95
2022-10-17T22:07:18.646Z,51.83
2022-10-17T22:12:28.375Z,51.73
2022-10-17T22:17:35.372Z,51.57
2022-10-17T22:22:42.668Z,51.45
2022-10-17T22:27:49.938Z,51.67
2022-10-17T22:32:57.070Z,51.70
2022-10-17T22:38:04.304Z,51.87
2022-10-17T22:43:11.538Z,51.85
2022-10-17T22:48:18.658Z,51.84
2022-10-17T22:53:27.242Z,51.96
2022-10-17T22:58:34.487Z,51.93
2022-10-17T23:03:41.663Z,51.93
2022-10-17T23:08:48.897Z,51.92
2022-10-17T23:13:56.133Z,51.77
2022-10-17T23:19:03.292Z,51.82
2022-10-17T23:24:12.627Z,51.80
2022-10-17T23:29:19.867Z,51.74
2022-10-17T23:34:27.014Z,51.70
2022-10-17T23:39:34.274Z,51.63
2022-10-17T23:44:41.497Z,51.57
2022-10-17T23:49:48.725Z,51.63
2022-10-17T23:54:55.948Z,51.67
